Time;durP1;ratioP1;P1;durP2;ratioP2;P2;SDS_P1;SDS_P2;PMS_P1;PMS_P2;Temp;Humidity;BMP_temperature;BMP_pressure;BME280_temperature;BME280_humidity;BME280_pressure;Samples;Min_cycle;Max_cycle;Signal;HPM_P1;HPM_P2
2021/06/18 00:00:42;;;;;;;7.43;6.00;;;;;;;20.67;66.56;100758.03;5025673;28;20209;-71
2021/06/18 00:03:08;;;;;;;7.63;6.00;;;;;;;20.65;66.89;100754.66;5020677;28;20946;-71
2021/06/18 00:05:35;;;;;;;7.30;5.57;;;;;;;20.68;66.55;100756.22;5024444;28;20928;-71
2021/06/18 00:08:01;;;;;;;10.07;6.57;;;;;;;20.65;66.98;100756.44;5009705;28;20234;-71
2021/06/18 00:10:28;;;;;;;7.60;6.53;;;;;;;20.67;66.70;100750.09;5009823;28;20214;-71
2021/06/18 00:12:55;;;;;;;8.77;6.27;;;;;;;20.65;67.19;100752.00;5022378;28;20204;-71
2021/06/18 00:15:23;;;;;;;7.63;6.23;;;;;;;20.58;67.79;100748.88;5018483;28;20227;-71
2021/06/18 00:17:50;;;;;;;7.10;6.40;;;;;;;20.52;67.99;100749.25;5021057;28;20261;-71
2021/06/18 00:20:17;;;;;;;6.70;6.10;;;;;;;20.43;67.86;100749.88;5023324;28;20282;-71
2021/06/18 00:22:44;;;;;;;7.23;6.33;;;;;;;20.39;67.87;100746.59;5020966;28;20224;-71
2021/06/18 00:25:12;;;;;;;6.60;6.00;;;;;;;20.37;68.37;100747.66;5026756;28;20210;-71
2021/06/18 00:27:38;;;;;;;7.13;6.40;;;;;;;20.32;68.26;100749.75;5020555;28;20224;-71
2021/06/18 00:30:07;;;;;;;9.03;6.03;;;;;;;20.27;69.26;100749.19;5025222;28;20567;-71
2021/06/18 00:32:35;;;;;;;7.30;6.23;;;;;;;20.21;68.97;100758.34;5019766;28;20212;-71
2021/06/18 00:35:01;;;;;;;7.20;6.27;;;;;;;20.15;69.11;100759.59;5019333;28;20220;-71
2021/06/18 00:37:27;;;;;;;6.80;6.10;;;;;;;20.10;69.63;100745.81;5022932;28;20692;-71
2021/06/18 00:39:55;;;;;;;8.57;6.33;;;;;;;20.07;69.88;100748.69;5024790;28;20555;-71
2021/06/18 00:42:21;;;;;;;6.77;6.13;;;;;;;20.09;69.82;100748.56;5002106;28;20485;-71
2021/06/18 00:44:48;;;;;;;9.70;6.40;;;;;;;20.05;70.05;100754.06;5024514;28;20728;-71
2021/06/18 00:47:18;;;;;;;6.97;6.27;;;;;;;20.01;69.40;100749.06;5024175;28;20226;-71
2021/06/18 00:49:48;;;;;;;6.63;6.03;;;;;;;19.93;70.20;100754.84;5020404;28;20205;-71
2021/06/18 00:52:16;;;;;;;7.03;6.33;;;;;;;19.85;69.93;100744.72;5023602;28;20197;-71
2021/06/18 00:54:44;;;;;;;8.60;5.93;;;;;;;19.76;70.18;100749.75;5015166;28;20224;-72
2021/06/18 00:57:11;;;;;;;7.30;6.60;;;;;;;19.70;71.28;100744.81;5024766;28;20234;-72
2021/06/18 00:59:37;;;;;;;7.90;6.20;;;;;;;19.61;71.77;100738.31;5023594;28;20294;-72
2021/06/18 01:02:04;;;;;;;8.37;6.43;;;;;;;19.50;72.04;100749.53;5021025;28;20204;-72
2021/06/18 01:04:32;;;;;;;7.67;6.43;;;;;;;19.42;73.00;100746.53;5012137;28;20208;-71
2021/06/18 01:07:03;;;;;;;7.47;6.67;;;;;;;19.33;73.39;100747.09;5017925;28;20720;-72
2021/06/18 01:09:38;;;;;;;9.17;6.43;;;;;;;19.24;73.22;100745.84;5027211;28;20298;-71
2021/06/18 01:12:09;;;;;;;8.33;7.10;;;;;;;19.14;74.82;100742.94;5024976;28;20608;-71
2021/06/18 01:14:39;;;;;;;7.30;6.60;;;;;;;19.08;74.86;100738.88;5026598;28;20237;-71
2021/06/18 01:17:15;;;;;;;7.03;6.43;;;;;;;19.02;74.48;100736.56;5026581;28;20227;-71
2021/06/18 01:19:58;;;;;;;7.03;6.43;;;;;;;19.00;75.03;100741.09;5034944;28;20207;-72
2021/06/18 01:22:27;;;;;;;6.97;6.27;;;;;;;19.01;74.94;100740.16;5009012;28;20251;-71
2021/06/18 01:25:01;;;;;;;8.47;6.83;;;;;;;18.98;74.90;100745.63;5025031;28;20552;-71
2021/06/18 01:27:42;;;;;;;8.90;6.60;;;;;;;18.95;76.00;100740.53;5022613;28;20247;-71
2021/06/18 01:30:12;;;;;;;7.87;6.10;;;;;;;18.91;75.25;100746.94;5020268;28;20841;-71
2021/06/18 01:32:43;;;;;;;7.50;6.60;;;;;;;18.86;76.19;100744.56;5026623;28;20203;-71
2021/06/18 01:35:14;;;;;;;7.33;6.63;;;;;;;18.81;76.22;100743.09;5024634;28;20250;-71
2021/06/18 01:37:44;;;;;;;8.10;6.37;;;;;;;18.75;76.46;100749.59;5030318;28;20243;-71
2021/06/18 01:40:12;;;;;;;7.37;6.60;;;;;;;18.68;77.07;100753.50;5025253;28;20207;-71
2021/06/18 01:42:42;;;;;;;10.43;7.07;;;;;;;18.64;77.33;100755.47;5024953;28;20209;-71
2021/06/18 01:45:14;;;;;;;8.23;6.53;;;;;;;18.59;77.64;100751.41;5019741;28;20207;-71
2021/06/18 01:47:43;;;;;;;7.47;6.77;;;;;;;18.54;78.00;100756.97;5025196;28;20223;-71
2021/06/18 01:50:12;;;;;;;7.53;6.20;;;;;;;18.51;78.59;100750.06;5028162;28;20206;-71
2021/06/18 01:52:41;;;;;;;10.77;6.73;;;;;;;18.48;78.90;100744.13;5027876;28;20207;-71
2021/06/18 01:55:10;;;;;;;7.67;6.87;;;;;;;18.44;79.78;100750.53;5027790;28;20704;-72
2021/06/18 01:57:38;;;;;;;7.90;7.07;;;;;;;18.35;79.03;100743.97;5023268;28;20318;-71
2021/06/18 02:00:07;;;;;;;9.30;7.47;;;;;;;18.27;80.21;100751.47;5027096;28;20845;-71
2021/06/18 02:02:41;;;;;;;8.70;7.53;;;;;;;18.18;81.81;100747.56;5028550;28;20226;-71
2021/06/18 02:05:09;;;;;;;8.30;7.50;;;;;;;18.15;81.85;100738.03;5009330;28;20200;-72
2021/06/18 02:07:37;;;;;;;8.17;7.37;;;;;;;18.11;82.27;100740.91;5023571;28;20235;-71
2021/06/18 02:10:08;;;;;;;7.87;7.00;;;;;;;18.00;82.34;100745.94;5020720;28;20208;-72
2021/06/18 02:12:36;;;;;;;10.03;8.00;;;;;;;17.97;82.81;100747.78;5018236;28;20294;-72
2021/06/18 02:15:05;;;;;;;8.43;7.63;;;;;;;17.89;82.83;100744.75;5023310;28;20218;-71
2021/06/18 02:17:33;;;;;;;9.23;7.63;;;;;;;17.90;84.31;100746.44;5024226;28;20335;-71
2021/06/18 02:20:01;;;;;;;10.37;7.60;;;;;;;17.84;83.78;100745.91;5026967;28;20215;-71
2021/06/18 02:22:29;;;;;;;7.80;7.03;;;;;;;17.84;84.59;100745.91;5025609;28;20214;-71
2021/06/18 02:24:56;;;;;;;10.43;8.10;;;;;;;17.76;84.48;100747.19;5029914;28;20218;-71
2021/06/18 02:27:22;;;;;;;9.73;7.60;;;;;;;17.70;83.88;100749.28;5030639;28;21792;-71
2021/06/18 02:29:49;;;;;;;7.83;7.03;;;;;;;17.70;84.45;100749.28;5021099;28;20846;-72
2021/06/18 02:32:16;;;;;;;10.20;7.90;;;;;;;17.63;83.61;100751.41;5030419;28;20295;-71
2021/06/18 02:34:43;;;;;;;10.20;7.87;;;;;;;17.59;84.10;100747.25;5026760;28;20713;-71
2021/06/18 02:37:12;;;;;;;10.20;8.13;;;;;;;17.60;84.80;100748.91;5027928;28;20251;-71
2021/06/18 02:39:39;;;;;;;8.50;7.60;;;;;;;17.57;84.93;100752.59;5027444;28;20679;-72
2021/06/18 02:42:06;;;;;;;8.47;7.17;;;;;;;17.54;85.03;100759.81;5024599;28;20203;-72
2021/06/18 02:44:32;;;;;;;8.73;7.83;;;;;;;17.55;86.28;100762.38;5026447;28;20787;-71
2021/06/18 02:47:04;;;;;;;9.30;7.73;;;;;;;17.49;85.30;100762.69;5030401;28;20268;-71
2021/06/18 02:49:40;;;;;;;9.00;7.63;;;;;;;17.46;85.66;100762.00;5023020;28;20697;-71
2021/06/18 02:52:11;;;;;;;10.37;7.90;;;;;;;17.42;86.63;100759.50;5025467;28;20291;-71
2021/06/18 02:54:44;;;;;;;9.07;8.13;;;;;;;17.35;87.40;100752.84;5026593;28;20315;-71
2021/06/18 02:57:18;;;;;;;8.57;7.70;;;;;;;17.34;86.70;100763.47;5023253;28;20230;-71
2021/06/18 02:59:50;;;;;;;8.77;7.87;;;;;;;17.35;86.61;100757.28;5022760;28;20197;-71
2021/06/18 03:02:19;;;;;;;8.90;7.83;;;;;;;17.33;87.22;100759.16;5027634;28;20204;-71
2021/06/18 03:04:47;;;;;;;8.67;7.63;;;;;;;17.28;87.74;100761.19;5031218;28;20207;-71
2021/06/18 03:07:18;;;;;;;8.87;7.97;;;;;;;17.22;86.78;100765.84;5019355;28;20327;-71
2021/06/18 03:09:49;;;;;;;8.80;7.57;;;;;;;17.20;87.13;100769.47;5021266;28;20216;-71
2021/06/18 03:12:19;;;;;;;8.10;7.30;;;;;;;17.21;87.53;100768.53;5025467;28;20621;-71
2021/06/18 03:14:46;;;;;;;8.53;7.37;;;;;;;17.21;85.98;100774.66;5027366;28;20216;-71
2021/06/18 03:17:17;;;;;;;8.30;7.33;;;;;;;17.25;86.12;100775.34;5022963;28;20216;-71
2021/06/18 03:19:48;;;;;;;11.30;7.53;;;;;;;17.33;84.88;100780.22;5013089;28;20301;-71
2021/06/18 03:22:17;;;;;;;8.33;7.53;;;;;;;17.44;83.67;100777.88;5025616;28;20744;-71
2021/06/18 03:24:47;;;;;;;9.53;7.13;;;;;;;17.53;83.06;100787.09;5012955;28;20707;-71
2021/06/18 03:27:15;;;;;;;11.57;7.93;;;;;;;17.58;83.12;100790.34;5016615;28;20314;-71
2021/06/18 03:29:42;;;;;;;8.47;7.60;;;;;;;17.66;82.06;100792.56;5024278;28;20591;-71
2021/06/18 03:32:10;;;;;;;8.20;7.40;;;;;;;17.79;81.83;100790.97;5024543;28;20673;-71
2021/06/18 03:34:37;;;;;;;9.53;7.27;;;;;;;17.93;81.20;100790.28;5025485;28;20203;-71
2021/06/18 03:37:04;;;;;;;7.77;6.77;;;;;;;18.03;80.85;100788.84;5027458;28;20238;-71
2021/06/18 03:39:33;;;;;;;7.90;7.10;;;;;;;18.14;79.58;100791.72;5024427;28;20210;-71
2021/06/18 03:42:00;;;;;;;8.57;6.67;;;;;;;18.25;79.37;100796.41;5026000;28;20294;-71
2021/06/18 03:44:27;;;;;;;9.67;7.23;;;;;;;18.34;78.68;100800.31;5024835;28;20203;-71
2021/06/18 03:46:54;;;;;;;7.87;7.07;;;;;;;18.41;78.45;100801.69;5026412;28;20669;-71
2021/06/18 03:49:24;;;;;;;7.53;6.83;;;;;;;18.53;77.72;100806.25;5020300;28;20192;-71
2021/06/18 03:51:51;;;;;;;7.70;6.73;;;;;;;18.60;77.45;100798.00;5027210;28;20279;-70
2021/06/18 03:54:17;;;;;;;7.50;6.63;;;;;;;18.65;77.31;100801.25;5024197;28;20211;-71
2021/06/18 03:56:48;;;;;;;9.20;6.77;;;;;;;18.71;77.77;100804.38;5020441;28;20212;-71
2021/06/18 03:59:17;;;;;;;8.70;6.73;;;;;;;18.72;76.91;100806.06;5023022;28;20195;-71
2021/06/18 04:01:46;;;;;;;7.03;6.33;;;;;;;18.76;77.30;100797.97;5021174;28;20524;-71
2021/06/18 04:04:12;;;;;;;9.70;6.83;;;;;;;18.78;76.98;100804.03;5023311;28;20207;-71
2021/06/18 04:06:39;;;;;;;7.23;6.53;;;;;;;18.85;77.26;100800.13;5024057;28;20210;-71
2021/06/18 04:09:08;;;;;;;8.37;6.77;;;;;;;19.00;76.64;100804.50;5021500;28;20665;-71
2021/06/18 04:11:35;;;;;;;8.83;6.83;;;;;;;19.10;75.41;100802.16;5024873;28;20229;-71
2021/06/18 04:14:03;;;;;;;6.87;6.27;;;;;;;19.25;75.37;100798.63;5026317;28;20846;-71
2021/06/18 04:16:30;;;;;;;7.13;6.43;;;;;;;19.40;74.11;100804.78;5017589;28;20310;-71
2021/06/18 04:18:58;;;;;;;10.50;6.87;;;;;;;19.59;73.79;100796.56;5019524;28;20701;-71
2021/06/18 04:21:27;;;;;;;9.93;6.40;;;;;;;19.76;72.93;100800.88;5024017;28;20204;-71
2021/06/18 04:23:53;;;;;;;7.70;6.50;;;;;;;19.91;72.13;100808.78;5020342;28;20310;-71
2021/06/18 04:26:20;;;;;;;7.13;5.67;;;;;;;20.06;71.69;100813.13;5023363;28;20200;-71
2021/06/18 04:28:47;;;;;;;9.83;5.80;;;;;;;20.22;71.04;100810.34;5022446;28;20585;-71
2021/06/18 04:31:15;;;;;;;6.10;5.50;;;;;;;20.34;70.33;100806.09;5020284;28;20537;-71
2021/06/18 04:33:42;;;;;;;6.57;5.80;;;;;;;20.50;69.60;100809.44;5005795;28;20223;-71
2021/06/18 04:36:08;;;;;;;7.47;5.70;;;;;;;20.66;69.05;100816.41;5020787;28;20235;-71
2021/06/18 04:38:37;;;;;;;8.17;5.53;;;;;;;20.77;68.77;100811.25;5019372;28;20877;-71
2021/06/18 04:41:04;;;;;;;5.83;5.27;;;;;;;20.94;67.50;100818.09;5023750;28;20447;-71
2021/06/18 04:43:30;;;;;;;7.40;5.70;;;;;;;21.03;67.80;100813.97;5024971;28;20326;-71
2021/06/18 04:45:57;;;;;;;6.87;5.43;;;;;;;21.17;66.94;100822.69;5027293;28;20629;-71
2021/06/18 04:48:27;;;;;;;7.83;5.60;;;;;;;21.34;66.80;100816.25;5021290;28;20236;-71
2021/06/18 04:50:54;;;;;;;7.87;5.50;;;;;;;21.50;65.64;100821.38;5024103;28;20281;-71
2021/06/18 04:53:20;;;;;;;7.13;5.40;;;;;;;21.54;65.91;100814.91;5025316;28;20215;-72
2021/06/18 04:55:46;;;;;;;6.60;5.60;;;;;;;21.65;65.34;100819.47;5039338;28;20226;-71
2021/06/18 04:58:13;;;;;;;8.40;5.33;;;;;;;21.76;64.67;100824.03;5045234;28;20719;-71
2021/06/18 05:00:40;;;;;;;6.17;5.37;;;;;;;21.93;64.41;100836.09;5047019;28;20283;-71
2021/06/18 05:03:07;;;;;;;5.23;4.73;;;;;;;22.08;63.78;100839.50;5043994;28;20724;-71
2021/06/18 05:05:35;;;;;;;6.67;5.33;;;;;;;22.22;63.52;100834.03;5050481;28;20273;-71
2021/06/18 05:08:01;;;;;;;5.70;5.07;;;;;;;22.33;63.40;100829.78;5043453;28;20874;-71
2021/06/18 05:10:29;;;;;;;5.03;4.63;;;;;;;22.44;62.29;100838.69;5043557;28;20298;-71
2021/06/18 05:12:55;;;;;;;6.50;5.07;;;;;;;22.57;61.77;100835.97;5040809;28;20207;-72
2021/06/18 05:15:22;;;;;;;5.67;5.00;;;;;;;22.68;61.23;100843.16;5043865;28;20207;-71
2021/06/18 05:17:49;;;;;;;6.80;4.90;;;;;;;22.79;60.72;100843.19;5040582;28;20258;-71
2021/06/18 05:20:15;;;;;;;6.40;4.77;;;;;;;22.92;60.62;100842.28;5040074;28;20704;-71
2021/06/18 05:22:43;;;;;;;5.63;4.97;;;;;;;23.05;59.91;100833.28;5042793;28;20675;-71
2021/06/18 05:25:11;;;;;;;6.23;4.73;;;;;;;23.20;58.43;100841.06;5039709;28;20221;-72
2021/06/18 05:27:38;;;;;;;5.20;4.37;;;;;;;23.28;58.08;100838.69;5044013;28;20237;-71
2021/06/18 05:30:07;;;;;;;6.70;4.83;;;;;;;23.37;58.48;100832.66;5044287;28;20203;-71
2021/06/18 05:32:33;;;;;;;5.00;4.50;;;;;;;23.50;57.54;100831.72;5043283;28;20203;-71
2021/06/18 05:35:00;;;;;;;4.90;4.30;;;;;;;23.60;57.37;100835.34;5044566;28;20207;-71
2021/06/18 05:37:26;;;;;;;5.90;4.80;;;;;;;23.69;57.51;100837.28;5036656;28;20257;-71
2021/06/18 05:39:54;;;;;;;4.73;4.33;;;;;;;23.81;56.65;100839.03;5039175;28;20674;-71
2021/06/18 05:42:20;;;;;;;5.37;4.67;;;;;;;23.93;56.31;100837.22;5043476;28;20587;-71
2021/06/18 05:44:46;;;;;;;4.83;4.43;;;;;;;24.00;55.48;100834.91;5041316;28;20199;-71
2021/06/18 05:47:13;;;;;;;7.20;4.30;;;;;;;24.13;55.71;100843.63;5044099;28;20227;-71
2021/06/18 05:49:39;;;;;;;5.93;4.07;;;;;;;24.27;54.72;100844.31;5041193;28;20221;-71
2021/06/18 05:52:07;;;;;;;4.40;4.00;;;;;;;24.44;54.05;100848.31;5044512;28;20574;-71
2021/06/18 05:54:34;;;;;;;4.40;4.00;;;;;;;24.44;54.13;100843.81;5043606;28;20238;-72
2021/06/18 05:57:01;;;;;;;5.23;4.10;;;;;;;24.54;55.04;100847.47;5040149;28;20234;-72
2021/06/18 05:59:28;;;;;;;4.77;4.33;;;;;;;24.68;53.11;100848.16;5038634;28;20212;-71
2021/06/18 06:01:54;;;;;;;5.30;3.90;;;;;;;24.74;52.07;100856.47;5032575;28;20203;-71
2021/06/18 06:04:20;;;;;;;4.88;4.15;;;;;;;24.83;51.68;100854.88;5040567;28;20192;-71
2021/06/18 06:06:47;;;;;;;4.15;3.70;;;;;;;24.95;51.64;100851.19;5037505;28;20644;-71
2021/06/18 06:09:13;;;;;;;4.10;3.65;;;;;;;25.09;51.11;100851.84;5038404;28;20571;-71
2021/06/18 06:11:39;;;;;;;5.20;4.17;;;;;;;25.20;50.99;100848.28;5031610;28;20211;-71
2021/06/18 06:14:08;;;;;;;4.40;3.70;;;;;;;25.28;51.41;100851.19;5042502;28;20235;-72
2021/06/18 06:16:35;;;;;;;3.92;3.53;;;;;;;25.36;49.95;100850.53;5039732;28;20754;-72
2021/06/18 06:19:03;;;;;;;5.55;3.67;;;;;;;25.51;49.10;100846.56;5041960;28;20226;-71
2021/06/18 06:21:30;;;;;;;4.28;3.47;;;;;;;25.64;48.23;100846.34;5035943;28;20237;-71
2021/06/18 06:23:56;;;;;;;3.70;3.35;;;;;;;25.78;49.75;100848.66;5041530;28;20668;-71
2021/06/18 06:26:23;;;;;;;3.67;3.30;;;;;;;26.00;47.89;100854.84;5038394;28;20214;-71
2021/06/18 06:28:49;;;;;;;3.90;3.50;;;;;;;26.07;47.66;100854.16;5041163;28;20326;-71
2021/06/18 06:31:17;;;;;;;3.30;3.00;;;;;;;26.19;46.17;100854.91;5039671;28;20281;-71
2021/06/18 06:33:44;;;;;;;4.60;3.10;;;;;;;26.20;45.68;100855.75;5041307;28;20215;-72
2021/06/18 06:36:10;;;;;;;3.50;3.20;;;;;;;26.32;46.43;100854.66;5041698;28;20227;-72
2021/06/18 06:38:37;;;;;;;3.83;3.40;;;;;;;26.41;46.68;100850.31;5039442;28;20754;-71
2021/06/18 06:41:05;;;;;;;4.28;3.45;;;;;;;26.49;47.34;100845.13;5038402;28;20644;-71
2021/06/18 06:43:32;;;;;;;5.10;3.42;;;;;;;26.53;45.90;100859.06;5042518;28;20200;-71
2021/06/18 06:45:58;;;;;;;3.65;3.10;;;;;;;26.65;46.02;100855.31;5040875;28;20204;-71
2021/06/18 06:48:26;;;;;;;3.55;3.25;;;;;;;26.71;46.73;100848.56;5038064;28;20223;-71
2021/06/18 06:50:53;;;;;;;6.68;3.40;;;;;;;26.88;45.49;100857.69;5040043;28;20203;-72
2021/06/18 06:53:19;;;;;;;3.67;3.13;;;;;;;26.92;45.97;100851.94;5043548;28;20199;-72
2021/06/18 06:55:46;;;;;;;4.50;2.90;;;;;;;26.99;45.58;100853.06;5043158;28;20229;-72
2021/06/18 06:58:12;;;;;;;3.70;3.30;;;;;;;27.06;46.28;100844.47;5045302;28;20982;-71
2021/06/18 07:00:39;;;;;;;4.72;3.58;;;;;;;27.17;46.40;100846.97;5042339;28;20694;-71
2021/06/18 07:03:05;;;;;;;3.47;2.90;;;;;;;27.37;45.57;100847.84;5044975;28;20205;-72
2021/06/18 07:05:33;;;;;;;4.85;3.17;;;;;;;27.53;45.26;100849.91;5038230;28;20215;-72
2021/06/18 07:08:00;;;;;;;3.42;3.00;;;;;;;27.67;45.78;100848.56;5042770;28;20227;-72
2021/06/18 07:10:26;;;;;;;4.15;3.50;;;;;;;27.72;44.39;100854.34;5041298;28;20203;-72
2021/06/18 07:12:53;;;;;;;4.50;3.25;;;;;;;27.77;44.01;100854.75;5042616;28;20203;-72
2021/06/18 07:15:19;;;;;;;5.07;3.30;;;;;;;27.78;44.71;100861.81;5033612;28;20567;-72
2021/06/18 07:17:45;;;;;;;3.92;2.90;;;;;;;27.77;43.61;100860.97;5046175;28;20719;-72
2021/06/18 07:20:13;;;;;;;4.00;3.60;;;;;;;27.90;44.14;100860.63;5017073;28;20250;-72
2021/06/18 07:22:40;;;;;;;4.65;3.58;;;;;;;27.95;43.91;100854.88;5039824;28;20723;-72
2021/06/18 07:25:08;;;;;;;4.82;3.58;;;;;;;28.04;44.19;100845.94;5035692;28;20586;-71
2021/06/18 07:27:34;;;;;;;5.88;3.17;;;;;;;28.09;42.01;100856.19;5040807;28;20314;-72
2021/06/18 07:30:01;;;;;;;4.60;3.30;;;;;;;28.18;43.83;100854.47;5040295;28;20210;-72
2021/06/18 07:32:28;;;;;;;6.07;3.42;;;;;;;28.17;43.08;100850.09;5017170;28;20208;-72
2021/06/18 07:34:54;;;;;;;4.68;3.03;;;;;;;28.31;42.51;100854.97;5041543;28;20692;-72
2021/06/18 07:37:21;;;;;;;5.10;3.72;;;;;;;28.37;43.13;100848.97;5041541;28;20219;-72
2021/06/18 07:39:49;;;;;;;3.63;3.20;;;;;;;28.53;42.15;100853.69;5039132;28;20214;-72
2021/06/18 07:42:15;;;;;;;4.68;3.10;;;;;;;28.67;43.22;100841.59;5042059;28;20199;-72
2021/06/18 07:44:42;;;;;;;4.18;3.15;;;;;;;28.66;42.92;100845.31;5039086;28;20215;-72
2021/06/18 07:47:09;;;;;;;7.03;3.50;;;;;;;28.73;43.30;100835.66;5042234;28;20226;-72
2021/06/18 07:49:35;;;;;;;4.50;3.40;;;;;;;28.83;42.38;100838.22;5038904;28;20301;-72
2021/06/18 07:52:02;;;;;;;3.65;3.15;;;;;;;28.79;43.16;100832.34;5038857;28;21136;-72
2021/06/18 07:54:29;;;;;;;3.38;3.08;;;;;;;28.84;42.58;100831.88;5034423;28;20285;-72
2021/06/18 07:56:57;;;;;;;4.55;3.10;;;;;;;28.91;42.63;100841.00;5042686;28;20232;-72
2021/06/18 07:59:23;;;;;;;4.55;3.40;;;;;;;28.92;42.61;100823.06;5042335;28;20211;-72
2021/06/18 08:01:50;;;;;;;3.40;3.10;;;;;;;29.08;42.38;100831.25;5040833;28;20646;-72
2021/06/18 08:04:16;;;;;;;3.35;3.05;;;;;;;29.32;42.08;100825.22;5039625;28;20200;-71
2021/06/18 08:06:43;;;;;;;4.20;3.63;;;;;;;29.26;40.17;100828.56;5041538;28;20275;-72
2021/06/18 08:09:09;;;;;;;5.07;2.92;;;;;;;29.41;42.09;100826.13;5042017;28;20326;-72
2021/06/18 08:11:36;;;;;;;3.83;3.00;;;;;;;29.45;41.00;100830.19;5021983;28;20664;-72
2021/06/18 08:14:05;;;;;;;3.20;2.90;;;;;;;29.41;41.48;100823.44;5035718;28;20207;-71
2021/06/18 08:16:31;;;;;;;3.90;3.15;;;;;;;29.40;40.61;100827.13;5038799;28;20227;-72
2021/06/18 08:18:58;;;;;;;3.10;2.80;;;;;;;29.42;40.26;100827.81;5045309;28;20318;-72
2021/06/18 08:21:24;;;;;;;3.95;3.10;;;;;;;29.57;41.43;100822.69;5045336;28;20222;-72
2021/06/18 08:23:50;;;;;;;4.57;3.10;;;;;;;29.72;40.77;100817.56;5047725;28;20215;-72
2021/06/18 08:26:17;;;;;;;3.25;2.75;;;;;;;29.85;40.58;100818.00;5043703;28;20199;-72
2021/06/18 08:28:43;;;;;;;3.50;2.95;;;;;;;30.00;41.50;100815.53;5039388;28;20255;-72
2021/06/18 08:31:11;;;;;;;3.13;2.83;;;;;;;30.06;40.02;100816.72;5040203;28;20211;-72
2021/06/18 08:33:38;;;;;;;3.13;2.83;;;;;;;30.02;40.46;100817.03;5043451;28;20195;-72
2021/06/18 08:36:06;;;;;;;4.30;2.85;;;;;;;30.12;39.02;100819.63;5042328;28;20211;-71
2021/06/18 08:38:34;;;;;;;5.80;3.05;;;;;;;30.25;38.17;100823.69;5045989;28;20222;-72
2021/06/18 08:41:03;;;;;;;4.90;2.85;;;;;;;30.31;39.68;100815.81;5041807;28;20210;-71
2021/06/18 08:43:31;;;;;;;3.03;2.53;;;;;;;30.41;38.79;100814.84;5044159;28;20211;-72
2021/06/18 08:45:58;;;;;;;3.67;2.97;;;;;;;30.60;37.99;100816.38;5042489;28;20205;-72
2021/06/18 08:48:26;;;;;;;4.03;3.10;;;;;;;30.48;37.00;100816.69;5027723;28;20211;-71
2021/06/18 08:50:52;;;;;;;2.88;2.58;;;;;;;30.41;37.43;100809.47;5042029;28;20241;-72
2021/06/18 08:53:19;;;;;;;3.03;2.83;;;;;;;30.50;37.11;100812.00;5039316;28;20230;-72
2021/06/18 08:55:45;;;;;;;3.30;2.95;;;;;;;30.48;36.96;100808.63;5042614;28;20204;-72
2021/06/18 08:58:12;;;;;;;2.90;2.63;;;;;;;30.51;36.97;100810.16;5040348;28;20230;-71
2021/06/18 09:00:38;;;;;;;3.13;2.78;;;;;;;30.49;37.53;100807.63;5039121;28;20207;-72
2021/06/18 09:03:37;;;;;;;5.00;2.72;;;;;;;30.70;38.31;100804.44;5035500;28;20208;-72
2021/06/18 09:06:23;;;;;;;2.80;2.60;;;;;;;30.74;38.09;100808.47;5043558;28;20214;-71
2021/06/18 09:09:09;;;;;;;3.80;2.28;;;;;;;30.67;37.89;100799.41;5039260;28;20307;-72
2021/06/18 09:11:37;;;;;;;2.60;2.40;;;;;;;30.59;37.22;100802.09;5045034;28;20764;-72
2021/06/18 09:14:21;;;;;;;3.85;2.40;;;;;;;30.53;36.97;100800.06;5040344;28;20206;-72
2021/06/18 09:17:06;;;;;;;5.70;2.90;;;;;;;30.56;36.97;100805.13;5027923;28;20222;-72
2021/06/18 09:19:35;;;;;;;3.85;2.60;;;;;;;30.72;37.35;100799.75;5042608;28;20273;-72
2021/06/18 09:22:04;;;;;;;4.75;2.88;;;;;;;30.62;37.17;100792.84;5026524;28;20201;-72
2021/06/18 09:24:32;;;;;;;3.42;2.50;;;;;;;30.55;36.51;100793.53;5040306;28;20207;-72
2021/06/18 09:26:59;;;;;;;3.50;2.85;;;;;;;30.67;37.82;100801.25;5039599;28;21454;-72
2021/06/18 09:29:27;;;;;;;3.65;2.60;;;;;;;30.86;37.09;100789.31;5044359;28;20208;-72
2021/06/18 09:31:58;;;;;;;2.80;2.50;;;;;;;31.04;35.85;100790.00;5043482;28;20249;-72
2021/06/18 09:34:49;;;;;;;3.22;2.67;;;;;;;31.02;35.36;100781.25;5041609;28;20301;-72
2021/06/18 09:37:30;;;;;;;3.33;2.85;;;;;;;31.18;36.06;100783.06;5040177;28;20361;-72
2021/06/18 09:39:59;;;;;;;3.15;2.67;;;;;;;31.32;36.30;100770.75;5039092;28;20211;-72
2021/06/18 09:42:25;;;;;;;3.60;2.53;;;;;;;31.29;35.68;100777.34;5025793;28;20199;-72
2021/06/18 09:45:01;;;;;;;4.60;2.60;;;;;;;31.25;34.59;100778.69;5039966;28;20314;-71
2021/06/18 09:47:27;;;;;;;3.85;3.03;;;;;;;31.41;36.30;100779.66;5038876;28;20233;-72
2021/06/18 09:49:56;;;;;;;5.13;3.17;;;;;;;31.27;36.08;100776.66;5038077;28;20195;-72
2021/06/18 09:52:24;;;;;;;4.47;3.00;;;;;;;31.30;34.87;100776.31;5036822;28;20469;-72
2021/06/18 09:54:53;;;;;;;4.45;2.65;;;;;;;31.43;34.49;100772.25;5042006;28;20203;-72
2021/06/18 09:57:21;;;;;;;4.47;2.70;;;;;;;31.42;35.54;100760.63;5039510;28;20633;-72
2021/06/18 09:59:55;;;;;;;3.22;2.88;;;;;;;31.42;36.33;100771.41;5039829;28;20290;-72
2021/06/18 10:02:35;;;;;;;3.38;2.58;;;;;;;31.61;37.13;100766.66;5035799;28;20302;-72
2021/06/18 10:05:05;;;;;;;4.28;2.50;;;;;;;31.76;35.50;100764.91;5039713;28;20241;-72
2021/06/18 10:07:34;;;;;;;3.40;3.10;;;;;;;31.88;34.83;100766.19;5036031;28;20227;-72
2021/06/18 10:10:01;;;;;;;4.35;3.10;;;;;;;31.92;35.78;100763.16;5040972;28;20290;-71
2021/06/18 10:12:29;;;;;;;3.25;2.95;;;;;;;31.96;35.23;100761.78;5042730;28;20214;-71
2021/06/18 10:14:56;;;;;;;4.93;2.95;;;;;;;32.12;35.56;100756.34;5038210;28;20665;-72
2021/06/18 10:17:22;;;;;;;3.58;2.70;;;;;;;32.15;33.79;100764.03;5045124;28;20228;-72
2021/06/18 10:19:49;;;;;;;4.43;2.90;;;;;;;32.17;34.20;100762.03;5040069;28;20228;-73
2021/06/18 10:22:20;;;;;;;3.35;2.85;;;;;;;32.18;34.83;100757.47;5037861;28;20832;-72
2021/06/18 10:24:55;;;;;;;3.58;2.80;;;;;;;32.28;33.00;100755.38;5044333;28;20203;-72
2021/06/18 10:27:28;;;;;;;4.68;2.40;;;;;;;32.31;34.41;100751.47;5038759;28;20243;-71
2021/06/18 10:29:56;;;;;;;4.13;3.00;;;;;;;32.15;34.28;100747.03;5042195;28;20290;-73
2021/06/18 10:32:34;;;;;;;3.25;2.95;;;;;;;32.30;34.92;100750.66;5038647;28;20325;-73
2021/06/18 10:35:04;;;;;;;2.95;2.67;;;;;;;32.38;33.53;100750.59;5046064;28;20226;-71
2021/06/18 10:37:33;;;;;;;3.90;2.72;;;;;;;32.35;31.70;100755.47;5023607;28;20257;-72
2021/06/18 10:40:07;;;;;;;3.92;2.58;;;;;;;32.15;34.25;100744.34;5031224;28;20207;-73
2021/06/18 10:42:34;;;;;;;5.10;2.75;;;;;;;32.18;33.81;100752.06;5036094;28;20656;-72
2021/06/18 10:45:00;;;;;;;3.70;2.47;;;;;;;32.32;32.58;100751.28;5024818;28;20207;-73
2021/06/18 10:47:57;;;;;;;3.13;2.83;;;;;;;32.47;31.84;100748.63;5037642;28;20231;-72
2021/06/18 10:50:49;;;;;;;5.53;3.30;;;;;;;32.56;32.33;100747.56;5038482;28;20302;-72
2021/06/18 10:53:21;;;;;;;5.00;2.95;;;;;;;32.56;31.70;100734.09;5033714;28;20254;-72
2021/06/18 10:55:48;;;;;;;3.20;2.60;;;;;;;32.64;32.97;100739.41;5036748;28;20215;-72
2021/06/18 10:58:15;;;;;;;3.45;3.10;;;;;;;32.77;32.67;100735.25;5040641;28;20280;-72
2021/06/18 11:00:41;;;;;;;5.40;3.28;;;;;;;32.81;31.44;100734.72;5043156;28;20660;-72
2021/06/18 11:03:08;;;;;;;5.28;2.67;;;;;;;32.89;33.35;100744.59;5036460;28;21097;-72
2021/06/18 11:05:40;;;;;;;4.07;3.10;;;;;;;32.89;33.22;100738.38;5035005;28;20777;-72
2021/06/18 11:08:29;;;;;;;3.50;3.17;;;;;;;32.75;32.59;100732.78;5039304;28;20230;-72
2021/06/18 11:10:58;;;;;;;4.80;2.83;;;;;;;32.69;33.80;100721.88;5043417;28;20205;-72
2021/06/18 11:13:25;;;;;;;3.10;2.78;;;;;;;32.62;32.80;100719.06;5038834;28;20572;-72
2021/06/18 11:15:52;;;;;;;4.32;2.80;;;;;;;32.73;31.51;100723.16;5037017;28;20764;-72
2021/06/18 11:18:31;;;;;;;3.45;2.80;;;;;;;32.79;30.68;100717.06;5039400;28;20234;-72
2021/06/18 11:21:01;;;;;;;3.40;2.67;;;;;;;32.84;31.63;100717.31;5035751;28;20198;-72
2021/06/18 11:23:34;;;;;;;3.08;2.80;;;;;;;32.83;31.25;100721.03;5033346;28;20299;-72
2021/06/18 11:26:06;;;;;;;3.10;2.72;;;;;;;32.92;31.76;100719.94;5033666;28;20208;-72
2021/06/18 11:28:41;;;;;;;2.97;2.67;;;;;;;32.94;30.84;100725.97;5041833;28;20230;-72
2021/06/18 11:31:09;;;;;;;5.60;2.97;;;;;;;32.94;32.31;100711.66;5040528;28;20646;-72